sensor_id;sensor_type;location;lat;lon;timestamp;P1;durP1;ratioP1;P2;durP2;ratioP2
28070;SDS011;15383;48.408;9.968;2024-03-29T00:00:09;3.95;;;2.80;;
28070;SDS011;15383;48.408;9.968;2024-03-29T00:02:35;7.35;;;2.97;;
28070;SDS011;15383;48.408;9.968;2024-03-29T00:05:00;7.75;;;3.03;;
28070;SDS011;15383;48.408;9.968;2024-03-29T00:07:28;8.55;;;3.20;;
28070;SDS011;15383;48.408;9.968;2024-03-29T00:09:53;8.60;;;2.80;;
28070;SDS011;15383;48.408;9.968;2024-03-29T00:12:19;5.30;;;2.80;;
28070;SDS011;15383;48.408;9.968;2024-03-29T00:14:44;9.07;;;3.30;;
28070;SDS011;15383;48.408;9.968;2024-03-29T00:17:10;3.45;;;2.30;;
28070;SDS011;15383;48.408;9.968;2024-03-29T00:19:35;5.35;;;2.83;;
28070;SDS011;15383;48.408;9.968;2024-03-29T00:22:01;4.70;;;2.83;;
28070;SDS011;15383;48.408;9.968;2024-03-29T00:24:27;8.05;;;3.00;;
28070;SDS011;15383;48.408;9.968;2024-03-29T00:26:52;6.63;;;3.70;;
28070;SDS011;15383;48.408;9.968;2024-03-29T00:29:18;7.00;;;3.63;;
28070;SDS011;15383;48.408;9.968;2024-03-29T00:31:43;5.25;;;2.78;;
28070;SDS011;15383;48.408;9.968;2024-03-29T00:34:09;8.10;;;2.50;;
28070;SDS011;15383;48.408;9.968;2024-03-29T00:36:34;5.55;;;2.72;;
28070;SDS011;15383;48.408;9.968;2024-03-29T00:39:00;7.32;;;3.15;;
28070;SDS011;15383;48.408;9.968;2024-03-29T00:41:25;7.70;;;3.30;;
28070;SDS011;15383;48.408;9.968;2024-03-29T00:43:51;8.77;;;3.40;;
28070;SDS011;15383;48.408;9.968;2024-03-29T00:46:16;6.18;;;2.55;;
28070;SDS011;15383;48.408;9.968;2024-03-29T00:48:43;5.20;;;2.83;;
28070;SDS011;15383;48.408;9.968;2024-03-29T00:51:11;7.47;;;3.20;;
28070;SDS011;15383;48.408;9.968;2024-03-29T00:53:37;6.50;;;2.78;;
28070;SDS011;15383;48.408;9.968;2024-03-29T00:56:02;5.05;;;2.63;;
28070;SDS011;15383;48.408;9.968;2024-03-29T00:58:29;9.23;;;3.05;;
28070;SDS011;15383;48.408;9.968;2024-03-29T01:00:54;5.70;;;2.95;;
28070;SDS011;15383;48.408;9.968;2024-03-29T01:03:20;4.57;;;2.42;;
28070;SDS011;15383;48.408;9.968;2024-03-29T01:05:45;6.25;;;2.38;;
28070;SDS011;15383;48.408;9.968;2024-03-29T01:08:11;3.50;;;2.30;;
28070;SDS011;15383;48.408;9.968;2024-03-29T01:10:36;10.63;;;2.50;;
28070;SDS011;15383;48.408;9.968;2024-03-29T01:13:02;3.75;;;2.35;;
28070;SDS011;15383;48.408;9.968;2024-03-29T01:15:27;4.25;;;2.25;;
28070;SDS011;15383;48.408;9.968;2024-03-29T01:17:53;4.10;;;2.97;;
28070;SDS011;15383;48.408;9.968;2024-03-29T01:20:18;4.20;;;2.25;;
28070;SDS011;15383;48.408;9.968;2024-03-29T01:22:44;3.17;;;1.90;;
28070;SDS011;15383;48.408;9.968;2024-03-29T01:25:09;6.20;;;2.17;;
28070;SDS011;15383;48.408;9.968;2024-03-29T01:27:36;3.97;;;2.28;;
28070;SDS011;15383;48.408;9.968;2024-03-29T01:30:02;5.53;;;2.53;;
28070;SDS011;15383;48.408;9.968;2024-03-29T01:32:28;7.10;;;2.53;;
28070;SDS011;15383;48.408;9.968;2024-03-29T01:34:53;6.07;;;2.42;;
28070;SDS011;15383;48.408;9.968;2024-03-29T01:37:19;11.30;;;2.25;;
28070;SDS011;15383;48.408;9.968;2024-03-29T01:39:44;4.43;;;2.67;;
28070;SDS011;15383;48.408;9.968;2024-03-29T01:42:10;4.90;;;2.22;;
28070;SDS011;15383;48.408;9.968;2024-03-29T01:44:36;2.85;;;2.20;;
28070;SDS011;15383;48.408;9.968;2024-03-29T01:47:01;5.10;;;2.00;;
28070;SDS011;15383;48.408;9.968;2024-03-29T01:49:27;2.55;;;2.00;;
28070;SDS011;15383;48.408;9.968;2024-03-29T01:51:54;8.90;;;2.20;;
28070;SDS011;15383;48.408;9.968;2024-03-29T01:54:20;6.05;;;2.30;;
28070;SDS011;15383;48.408;9.968;2024-03-29T01:56:46;7.50;;;2.28;;
28070;SDS011;15383;48.408;9.968;2024-03-29T01:59:13;4.95;;;2.85;;
28070;SDS011;15383;48.408;9.968;2024-03-29T02:01:40;3.92;;;2.25;;
28070;SDS011;15383;48.408;9.968;2024-03-29T02:04:07;3.70;;;1.70;;
28070;SDS011;15383;48.408;9.968;2024-03-29T02:06:34;2.67;;;1.75;;
28070;SDS011;15383;48.408;9.968;2024-03-29T02:09:00;2.55;;;1.55;;
28070;SDS011;15383;48.408;9.968;2024-03-29T02:11:25;4.47;;;1.70;;
28070;SDS011;15383;48.408;9.968;2024-03-29T02:13:51;2.65;;;1.70;;
28070;SDS011;15383;48.408;9.968;2024-03-29T02:16:17;2.08;;;1.38;;
28070;SDS011;15383;48.408;9.968;2024-03-29T02:18:42;4.13;;;1.73;;
28070;SDS011;15383;48.408;9.968;2024-03-29T02:21:08;3.15;;;1.45;;
28070;SDS011;15383;48.408;9.968;2024-03-29T02:23:35;2.58;;;1.63;;
28070;SDS011;15383;48.408;9.968;2024-03-29T02:26:05;4.70;;;1.83;;
28070;SDS011;15383;48.408;9.968;2024-03-29T02:28:30;2.20;;;1.42;;
28070;SDS011;15383;48.408;9.968;2024-03-29T02:30:56;2.22;;;1.48;;
28070;SDS011;15383;48.408;9.968;2024-03-29T02:33:22;2.35;;;1.42;;
28070;SDS011;15383;48.408;9.968;2024-03-29T02:35:48;6.20;;;2.08;;
28070;SDS011;15383;48.408;9.968;2024-03-29T02:38:13;2.78;;;1.70;;
28070;SDS011;15383;48.408;9.968;2024-03-29T02:40:39;2.80;;;1.55;;
28070;SDS011;15383;48.408;9.968;2024-03-29T02:43:05;5.15;;;1.80;;
28070;SDS011;15383;48.408;9.968;2024-03-29T02:45:30;1.58;;;1.48;;
28070;SDS011;15383;48.408;9.968;2024-03-29T02:47:56;6.07;;;1.50;;
28070;SDS011;15383;48.408;9.968;2024-03-29T02:50:21;4.00;;;1.90;;
28070;SDS011;15383;48.408;9.968;2024-03-29T02:52:47;4.60;;;2.17;;
28070;SDS011;15383;48.408;9.968;2024-03-29T02:55:12;4.20;;;1.83;;
28070;SDS011;15383;48.408;9.968;2024-03-29T02:57:38;3.08;;;1.67;;
28070;SDS011;15383;48.408;9.968;2024-03-29T03:00:05;1.33;;;1.10;;
28070;SDS011;15383;48.408;9.968;2024-03-29T03:02:31;2.50;;;1.45;;
28070;SDS011;15383;48.408;9.968;2024-03-29T03:04:57;3.08;;;1.92;;
28070;SDS011;15383;48.408;9.968;2024-03-29T03:07:24;4.03;;;1.88;;
28070;SDS011;15383;48.408;9.968;2024-03-29T03:10:08;2.38;;;1.17;;
28070;SDS011;15383;48.408;9.968;2024-03-29T03:12:52;3.17;;;1.75;;
28070;SDS011;15383;48.408;9.968;2024-03-29T03:15:18;2.65;;;1.67;;
28070;SDS011;15383;48.408;9.968;2024-03-29T03:17:43;2.88;;;1.67;;
28070;SDS011;15383;48.408;9.968;2024-03-29T03:20:09;2.63;;;1.40;;
28070;SDS011;15383;48.408;9.968;2024-03-29T03:22:36;3.00;;;1.58;;
28070;SDS011;15383;48.408;9.968;2024-03-29T03:25:02;3.33;;;1.90;;
28070;SDS011;15383;48.408;9.968;2024-03-29T03:27:28;5.45;;;1.65;;
28070;SDS011;15383;48.408;9.968;2024-03-29T03:29:53;3.40;;;1.63;;
28070;SDS011;15383;48.408;9.968;2024-03-29T03:32:19;2.75;;;1.30;;
28070;SDS011;15383;48.408;9.968;2024-03-29T03:34:44;2.92;;;1.70;;
28070;SDS011;15383;48.408;9.968;2024-03-29T03:37:10;2.75;;;1.50;;
28070;SDS011;15383;48.408;9.968;2024-03-29T03:39:36;4.25;;;1.48;;
28070;SDS011;15383;48.408;9.968;2024-03-29T03:42:02;2.50;;;2.00;;
28070;SDS011;15383;48.408;9.968;2024-03-29T03:44:28;4.40;;;1.60;;
28070;SDS011;15383;48.408;9.968;2024-03-29T03:46:53;2.65;;;1.73;;
28070;SDS011;15383;48.408;9.968;2024-03-29T03:49:20;4.63;;;2.35;;
28070;SDS011;15383;48.408;9.968;2024-03-29T03:51:45;2.33;;;1.50;;
28070;SDS011;15383;48.408;9.968;2024-03-29T03:54:11;2.30;;;1.45;;
28070;SDS011;15383;48.408;9.968;2024-03-29T03:56:36;2.50;;;1.48;;
28070;SDS011;15383;48.408;9.968;2024-03-29T03:59:02;2.42;;;1.70;;
28070;SDS011;15383;48.408;9.968;2024-03-29T04:01:27;1.40;;;1.30;;
28070;SDS011;15383;48.408;9.968;2024-03-29T04:03:53;3.15;;;1.88;;
28070;SDS011;15383;48.408;9.968;2024-03-29T04:06:18;1.80;;;1.27;;
28070;SDS011;15383;48.408;9.968;2024-03-29T04:08:44;5.18;;;1.58;;
28070;SDS011;15383;48.408;9.968;2024-03-29T04:11:10;3.25;;;1.38;;
28070;SDS011;15383;48.408;9.968;2024-03-29T04:13:35;3.25;;;1.45;;
28070;SDS011;15383;48.408;9.968;2024-03-29T04:16:04;2.80;;;1.55;;
28070;SDS011;15383;48.408;9.968;2024-03-29T04:18:30;2.17;;;1.52;;
28070;SDS011;15383;48.408;9.968;2024-03-29T04:20:57;1.65;;;1.38;;
28070;SDS011;15383;48.408;9.968;2024-03-29T04:23:23;3.53;;;1.65;;
28070;SDS011;15383;48.408;9.968;2024-03-29T04:25:55;1.98;;;1.52;;
28070;SDS011;15383;48.408;9.968;2024-03-29T04:28:22;6.63;;;1.38;;
28070;SDS011;15383;48.408;9.968;2024-03-29T04:30:58;2.08;;;1.17;;
28070;SDS011;15383;48.408;9.968;2024-03-29T04:33:25;2.20;;;1.20;;
28070;SDS011;15383;48.408;9.968;2024-03-29T04:35:56;1.85;;;1.30;;
28070;SDS011;15383;48.408;9.968;2024-03-29T04:38:26;2.47;;;1.40;;
28070;SDS011;15383;48.408;9.968;2024-03-29T04:40:53;1.70;;;1.23;;
28070;SDS011;15383;48.408;9.968;2024-03-29T04:43:23;2.38;;;1.33;;
28070;SDS011;15383;48.408;9.968;2024-03-29T04:45:50;2.38;;;1.40;;
28070;SDS011;15383;48.408;9.968;2024-03-29T04:48:16;1.75;;;1.40;;
28070;SDS011;15383;48.408;9.968;2024-03-29T04:50:41;3.22;;;1.60;;
28070;SDS011;15383;48.408;9.968;2024-03-29T04:53:07;2.28;;;0.98;;
28070;SDS011;15383;48.408;9.968;2024-03-29T04:55:33;4.22;;;1.55;;
28070;SDS011;15383;48.408;9.968;2024-03-29T04:58:00;2.90;;;1.52;;
28070;SDS011;15383;48.408;9.968;2024-03-29T05:00:26;3.88;;;1.50;;
28070;SDS011;15383;48.408;9.968;2024-03-29T05:02:52;2.60;;;1.63;;
28070;SDS011;15383;48.408;9.968;2024-03-29T05:05:17;2.85;;;1.30;;
28070;SDS011;15383;48.408;9.968;2024-03-29T05:07:43;2.33;;;1.40;;
28070;SDS011;15383;48.408;9.968;2024-03-29T05:10:08;2.63;;;1.33;;
28070;SDS011;15383;48.408;9.968;2024-03-29T05:12:37;2.35;;;1.40;;
28070;SDS011;15383;48.408;9.968;2024-03-29T05:15:02;2.78;;;1.77;;
28070;SDS011;15383;48.408;9.968;2024-03-29T05:17:28;3.22;;;1.95;;
28070;SDS011;15383;48.408;9.968;2024-03-29T05:19:54;3.78;;;1.52;;
28070;SDS011;15383;48.408;9.968;2024-03-29T05:22:19;2.13;;;1.52;;
28070;SDS011;15383;48.408;9.968;2024-03-29T05:24:45;1.95;;;1.15;;
28070;SDS011;15383;48.408;9.968;2024-03-29T05:27:11;2.58;;;1.77;;
28070;SDS011;15383;48.408;9.968;2024-03-29T05:29:37;2.20;;;1.70;;
28070;SDS011;15383;48.408;9.968;2024-03-29T05:32:03;2.15;;;1.50;;
28070;SDS011;15383;48.408;9.968;2024-03-29T05:34:29;4.45;;;1.60;;
28070;SDS011;15383;48.408;9.968;2024-03-29T05:36:55;2.40;;;1.63;;
28070;SDS011;15383;48.408;9.968;2024-03-29T05:39:20;3.03;;;1.75;;
28070;SDS011;15383;48.408;9.968;2024-03-29T05:41:46;2.92;;;1.50;;
28070;SDS011;15383;48.408;9.968;2024-03-29T05:44:11;2.38;;;1.67;;
28070;SDS011;15383;48.408;9.968;2024-03-29T05:46:38;2.17;;;1.70;;
28070;SDS011;15383;48.408;9.968;2024-03-29T05:49:05;2.35;;;1.38;;
28070;SDS011;15383;48.408;9.968;2024-03-29T05:51:30;1.88;;;1.35;;
28070;SDS011;15383;48.408;9.968;2024-03-29T05:53:56;4.65;;;1.60;;
28070;SDS011;15383;48.408;9.968;2024-03-29T05:56:22;3.17;;;1.70;;
28070;SDS011;15383;48.408;9.968;2024-03-29T05:58:47;3.08;;;1.73;;
28070;SDS011;15383;48.408;9.968;2024-03-29T06:01:13;2.50;;;1.73;;
28070;SDS011;15383;48.408;9.968;2024-03-29T06:03:38;1.80;;;1.45;;
28070;SDS011;15383;48.408;9.968;2024-03-29T06:06:04;3.97;;;1.80;;
28070;SDS011;15383;48.408;9.968;2024-03-29T06:08:30;2.28;;;1.60;;
28070;SDS011;15383;48.408;9.968;2024-03-29T06:10:55;7.72;;;2.20;;
28070;SDS011;15383;48.408;9.968;2024-03-29T06:13:22;2.58;;;1.30;;
28070;SDS011;15383;48.408;9.968;2024-03-29T06:16:06;5.20;;;1.80;;
28070;SDS011;15383;48.408;9.968;2024-03-29T06:18:50;2.53;;;1.60;;
28070;SDS011;15383;48.408;9.968;2024-03-29T06:21:16;5.93;;;1.88;;
28070;SDS011;15383;48.408;9.968;2024-03-29T06:23:41;1.83;;;1.55;;
28070;SDS011;15383;48.408;9.968;2024-03-29T06:26:07;2.72;;;1.60;;
28070;SDS011;15383;48.408;9.968;2024-03-29T06:28:32;4.47;;;2.13;;
28070;SDS011;15383;48.408;9.968;2024-03-29T06:30:58;4.28;;;1.45;;
28070;SDS011;15383;48.408;9.968;2024-03-29T06:33:25;3.17;;;1.95;;
28070;SDS011;15383;48.408;9.968;2024-03-29T06:35:54;1.73;;;1.58;;
28070;SDS011;15383;48.408;9.968;2024-03-29T06:38:20;3.50;;;1.60;;
28070;SDS011;15383;48.408;9.968;2024-03-29T06:40:45;5.95;;;2.03;;
28070;SDS011;15383;48.408;9.968;2024-03-29T06:43:11;2.80;;;1.70;;
28070;SDS011;15383;48.408;9.968;2024-03-29T06:45:39;1.88;;;1.48;;
28070;SDS011;15383;48.408;9.968;2024-03-29T06:48:07;1.77;;;1.40;;
28070;SDS011;15383;48.408;9.968;2024-03-29T06:50:33;2.33;;;1.65;;
28070;SDS011;15383;48.408;9.968;2024-03-29T06:52:59;1.67;;;1.58;;
28070;SDS011;15383;48.408;9.968;2024-03-29T06:55:25;2.30;;;1.58;;
28070;SDS011;15383;48.408;9.968;2024-03-29T06:57:51;2.22;;;1.45;;
28070;SDS011;15383;48.408;9.968;2024-03-29T07:00:16;3.10;;;1.88;;
28070;SDS011;15383;48.408;9.968;2024-03-29T07:02:42;2.63;;;1.75;;
28070;SDS011;15383;48.408;9.968;2024-03-29T07:05:08;2.08;;;1.45;;
28070;SDS011;15383;48.408;9.968;2024-03-29T07:07:36;3.05;;;1.63;;
28070;SDS011;15383;48.408;9.968;2024-03-29T07:10:02;4.50;;;2.00;;
28070;SDS011;15383;48.408;9.968;2024-03-29T07:12:28;3.20;;;1.80;;
28070;SDS011;15383;48.408;9.968;2024-03-29T07:14:53;5.05;;;2.03;;
28070;SDS011;15383;48.408;9.968;2024-03-29T07:17:19;3.47;;;1.90;;
28070;SDS011;15383;48.408;9.968;2024-03-29T07:19:45;5.00;;;2.00;;
28070;SDS011;15383;48.408;9.968;2024-03-29T07:22:10;3.78;;;1.85;;
28070;SDS011;15383;48.408;9.968;2024-03-29T07:24:36;3.30;;;1.75;;
28070;SDS011;15383;48.408;9.968;2024-03-29T07:27:01;2.13;;;1.40;;
28070;SDS011;15383;48.408;9.968;2024-03-29T07:29:27;1.73;;;1.50;;
28070;SDS011;15383;48.408;9.968;2024-03-29T07:31:52;2.40;;;1.73;;
28070;SDS011;15383;48.408;9.968;2024-03-29T07:34:19;3.00;;;1.35;;
28070;SDS011;15383;48.408;9.968;2024-03-29T07:36:44;2.45;;;1.75;;
28070;SDS011;15383;48.408;9.968;2024-03-29T07:39:10;1.88;;;1.40;;
28070;SDS011;15383;48.408;9.968;2024-03-29T07:41:35;2.45;;;1.23;;
28070;SDS011;15383;48.408;9.968;2024-03-29T07:44:01;5.00;;;2.22;;
28070;SDS011;15383;48.408;9.968;2024-03-29T07:46:33;2.35;;;1.65;;
28070;SDS011;15383;48.408;9.968;2024-03-29T07:48:59;1.80;;;1.45;;
28070;SDS011;15383;48.408;9.968;2024-03-29T07:51:25;3.45;;;1.92;;
28070;SDS011;15383;48.408;9.968;2024-03-29T07:53:50;1.77;;;1.52;;
28070;SDS011;15383;48.408;9.968;2024-03-29T07:56:17;2.65;;;1.27;;
28070;SDS011;15383;48.408;9.968;2024-03-29T07:58:43;3.42;;;1.40;;
28070;SDS011;15383;48.408;9.968;2024-03-29T08:01:09;1.67;;;1.33;;
28070;SDS011;15383;48.408;9.968;2024-03-29T08:03:34;1.85;;;1.30;;
28070;SDS011;15383;48.408;9.968;2024-03-29T08:06:01;1.58;;;1.23;;
28070;SDS011;15383;48.408;9.968;2024-03-29T08:08:31;1.80;;;1.37;;
28070;SDS011;15383;48.408;9.968;2024-03-29T08:10:57;1.20;;;1.10;;
28070;SDS011;15383;48.408;9.968;2024-03-29T08:13:24;2.33;;;1.33;;
28070;SDS011;15383;48.408;9.968;2024-03-29T08:15:58;1.65;;;1.20;;
28070;SDS011;15383;48.408;9.968;2024-03-29T08:18:27;1.42;;;1.30;;
28070;SDS011;15383;48.408;9.968;2024-03-29T08:20:53;0.88;;;0.88;;
28070;SDS011;15383;48.408;9.968;2024-03-29T08:25:49;1.02;;;1.02;;
28070;SDS011;15383;48.408;9.968;2024-03-29T08:28:16;1.45;;;1.05;;
28070;SDS011;15383;48.408;9.968;2024-03-29T08:30:45;1.77;;;1.20;;
28070;SDS011;15383;48.408;9.968;2024-03-29T08:33:11;1.67;;;0.88;;
28070;SDS011;15383;48.408;9.968;2024-03-29T08:35:37;2.53;;;1.15;;
28070;SDS011;15383;48.408;9.968;2024-03-29T08:38:04;1.73;;;1.20;;
28070;SDS011;15383;48.408;9.968;2024-03-29T08:40:30;2.05;;;1.00;;
28070;SDS011;15383;48.408;9.968;2024-03-29T08:42:57;1.50;;;1.10;;
28070;SDS011;15383;48.408;9.968;2024-03-29T08:45:22;2.00;;;1.00;;
28070;SDS011;15383;48.408;9.968;2024-03-29T08:47:48;5.38;;;1.17;;
28070;SDS011;15383;48.408;9.968;2024-03-29T08:50:14;4.75;;;1.17;;
28070;SDS011;15383;48.408;9.968;2024-03-29T08:52:40;1.88;;;1.20;;
28070;SDS011;15383;48.408;9.968;2024-03-29T08:55:06;1.58;;;0.93;;
28070;SDS011;15383;48.408;9.968;2024-03-29T08:57:32;1.52;;;1.10;;
28070;SDS011;15383;48.408;9.968;2024-03-29T08:59:58;2.08;;;1.63;;
28070;SDS011;15383;48.408;9.968;2024-03-29T09:02:23;1.58;;;1.00;;
28070;SDS011;15383;48.408;9.968;2024-03-29T09:04:49;1.83;;;1.45;;
28070;SDS011;15383;48.408;9.968;2024-03-29T09:07:14;1.73;;;1.05;;
28070;SDS011;15383;48.408;9.968;2024-03-29T09:09:40;1.75;;;1.20;;
28070;SDS011;15383;48.408;9.968;2024-03-29T09:12:07;1.60;;;1.10;;
28070;SDS011;15383;48.408;9.968;2024-03-29T09:14:33;1.17;;;1.00;;
28070;SDS011;15383;48.408;9.968;2024-03-29T09:16:59;1.60;;;1.10;;
28070;SDS011;15383;48.408;9.968;2024-03-29T09:19:24;1.50;;;1.02;;
28070;SDS011;15383;48.408;9.968;2024-03-29T09:21:50;1.20;;;1.10;;
28070;SDS011;15383;48.408;9.968;2024-03-29T09:24:16;1.95;;;1.00;;
28070;SDS011;15383;48.408;9.968;2024-03-29T09:26:42;2.60;;;1.27;;
28070;SDS011;15383;48.408;9.968;2024-03-29T09:29:08;2.65;;;1.15;;
28070;SDS011;15383;48.408;9.968;2024-03-29T09:31:34;2.08;;;1.08;;
28070;SDS011;15383;48.408;9.968;2024-03-29T09:34:00;1.40;;;0.98;;
28070;SDS011;15383;48.408;9.968;2024-03-29T09:36:25;2.60;;;1.13;;
28070;SDS011;15383;48.408;9.968;2024-03-29T09:38:51;1.42;;;0.95;;
28070;SDS011;15383;48.408;9.968;2024-03-29T09:41:18;2.08;;;1.25;;
28070;SDS011;15383;48.408;9.968;2024-03-29T09:43:45;1.30;;;1.20;;
28070;SDS011;15383;48.408;9.968;2024-03-29T09:46:16;1.15;;;1.05;;
28070;SDS011;15383;48.408;9.968;2024-03-29T09:48:43;1.27;;;1.10;;
28070;SDS011;15383;48.408;9.968;2024-03-29T09:51:12;1.63;;;1.30;;
28070;SDS011;15383;48.408;9.968;2024-03-29T09:53:39;1.20;;;1.00;;
28070;SDS011;15383;48.408;9.968;2024-03-29T09:56:06;1.85;;;1.17;;
28070;SDS011;15383;48.408;9.968;2024-03-29T09:58:32;1.23;;;1.13;;
28070;SDS011;15383;48.408;9.968;2024-03-29T10:00:59;1.42;;;1.20;;
28070;SDS011;15383;48.408;9.968;2024-03-29T10:03:25;1.70;;;1.50;;
28070;SDS011;15383;48.408;9.968;2024-03-29T10:05:58;2.05;;;1.60;;
28070;SDS011;15383;48.408;9.968;2024-03-29T10:08:27;1.30;;;1.20;;
28070;SDS011;15383;48.408;9.968;2024-03-29T10:10:55;3.75;;;1.30;;
28070;SDS011;15383;48.408;9.968;2024-03-29T10:13:21;2.75;;;1.40;;
28070;SDS011;15383;48.408;9.968;2024-03-29T10:15:50;1.55;;;1.25;;
28070;SDS011;15383;48.408;9.968;2024-03-29T10:18:18;2.85;;;1.60;;
28070;SDS011;15383;48.408;9.968;2024-03-29T10:20:57;3.63;;;1.63;;
28070;SDS011;15383;48.408;9.968;2024-03-29T10:23:27;2.15;;;1.60;;
28070;SDS011;15383;48.408;9.968;2024-03-29T10:25:53;3.35;;;1.30;;
28070;SDS011;15383;48.408;9.968;2024-03-29T10:28:18;1.38;;;1.27;;
28070;SDS011;15383;48.408;9.968;2024-03-29T10:30:44;2.40;;;1.70;;
28070;SDS011;15383;48.408;9.968;2024-03-29T10:33:10;2.28;;;1.17;;
28070;SDS011;15383;48.408;9.968;2024-03-29T10:35:35;4.50;;;1.40;;
28070;SDS011;15383;48.408;9.968;2024-03-29T10:38:04;2.78;;;1.50;;
28070;SDS011;15383;48.408;9.968;2024-03-29T10:40:29;16.38;;;1.55;;
28070;SDS011;15383;48.408;9.968;2024-03-29T10:42:55;3.35;;;1.13;;
28070;SDS011;15383;48.408;9.968;2024-03-29T10:45:22;1.77;;;1.38;;
28070;SDS011;15383;48.408;9.968;2024-03-29T10:47:49;1.77;;;1.55;;
28070;SDS011;15383;48.408;9.968;2024-03-29T10:50:17;2.17;;;1.60;;
28070;SDS011;15383;48.408;9.968;2024-03-29T10:52:44;1.90;;;1.42;;
28070;SDS011;15383;48.408;9.968;2024-03-29T10:55:11;2.38;;;1.60;;
28070;SDS011;15383;48.408;9.968;2024-03-29T10:57:40;3.97;;;2.03;;
28070;SDS011;15383;48.408;9.968;2024-03-29T11:00:13;1.98;;;1.35;;
28070;SDS011;15383;48.408;9.968;2024-03-29T11:05:21;3.03;;;1.90;;
28070;SDS011;15383;48.408;9.968;2024-03-29T11:07:47;2.50;;;1.67;;
28070;SDS011;15383;48.408;9.968;2024-03-29T11:10:15;3.38;;;2.13;;
28070;SDS011;15383;48.408;9.968;2024-03-29T11:12:58;2.13;;;1.73;;
28070;SDS011;15383;48.408;9.968;2024-03-29T11:15:44;2.67;;;1.95;;
28070;SDS011;15383;48.408;9.968;2024-03-29T11:18:13;9.68;;;1.30;;
28070;SDS011;15383;48.408;9.968;2024-03-29T11:20:44;1.67;;;1.25;;
28070;SDS011;15383;48.408;9.968;2024-03-29T11:23:16;3.30;;;1.92;;
28070;SDS011;15383;48.408;9.968;2024-03-29T11:25:43;1.30;;;1.20;;
28070;SDS011;15383;48.408;9.968;2024-03-29T11:28:14;2.53;;;1.60;;
28070;SDS011;15383;48.408;9.968;2024-03-29T11:30:46;2.42;;;1.20;;
28070;SDS011;15383;48.408;9.968;2024-03-29T11:33:25;1.80;;;1.50;;
28070;SDS011;15383;48.408;9.968;2024-03-29T11:35:55;1.40;;;1.30;;
28070;SDS011;15383;48.408;9.968;2024-03-29T11:38:21;1.60;;;1.30;;
28070;SDS011;15383;48.408;9.968;2024-03-29T11:43:30;1.33;;;1.23;;
28070;SDS011;15383;48.408;9.968;2024-03-29T11:45:57;1.63;;;1.30;;
28070;SDS011;15383;48.408;9.968;2024-03-29T11:48:26;1.90;;;1.40;;
28070;SDS011;15383;48.408;9.968;2024-03-29T11:50:52;2.15;;;1.45;;
28070;SDS011;15383;48.408;9.968;2024-03-29T11:53:19;4.70;;;1.17;;
28070;SDS011;15383;48.408;9.968;2024-03-29T11:55:45;2.83;;;1.77;;
28070;SDS011;15383;48.408;9.968;2024-03-29T11:58:12;1.90;;;1.35;;
28070;SDS011;15383;48.408;9.968;2024-03-29T12:00:38;2.38;;;1.60;;
28070;SDS011;15383;48.408;9.968;2024-03-29T12:03:04;3.13;;;1.55;;
28070;SDS011;15383;48.408;9.968;2024-03-29T12:05:30;2.38;;;1.63;;
28070;SDS011;15383;48.408;9.968;2024-03-29T12:07:56;1.55;;;1.45;;
28070;SDS011;15383;48.408;9.968;2024-03-29T12:10:26;3.03;;;1.50;;
28070;SDS011;15383;48.408;9.968;2024-03-29T12:12:58;1.98;;;1.60;;
28070;SDS011;15383;48.408;9.968;2024-03-29T12:15:27;2.35;;;1.70;;
28070;SDS011;15383;48.408;9.968;2024-03-29T12:17:53;4.63;;;1.50;;
28070;SDS011;15383;48.408;9.968;2024-03-29T12:20:20;2.75;;;1.30;;
28070;SDS011;15383;48.408;9.968;2024-03-29T12:22:46;1.42;;;1.33;;
28070;SDS011;15383;48.408;9.968;2024-03-29T12:25:12;2.45;;;1.60;;
28070;SDS011;15383;48.408;9.968;2024-03-29T12:27:38;3.13;;;1.48;;
28070;SDS011;15383;48.408;9.968;2024-03-29T12:30:04;4.30;;;1.30;;
28070;SDS011;15383;48.408;9.968;2024-03-29T12:32:30;3.17;;;1.88;;
28070;SDS011;15383;48.408;9.968;2024-03-29T12:35:07;4.45;;;1.88;;
28070;SDS011;15383;48.408;9.968;2024-03-29T12:37:47;2.08;;;1.50;;
28070;SDS011;15383;48.408;9.968;2024-03-29T12:40:15;2.28;;;1.77;;
28070;SDS011;15383;48.408;9.968;2024-03-29T12:42:46;2.88;;;2.08;;
28070;SDS011;15383;48.408;9.968;2024-03-29T12:45:12;4.53;;;2.05;;
28070;SDS011;15383;48.408;9.968;2024-03-29T12:47:38;3.13;;;1.73;;
28070;SDS011;15383;48.408;9.968;2024-03-29T12:50:04;2.83;;;1.40;;
28070;SDS011;15383;48.408;9.968;2024-03-29T12:52:36;2.28;;;1.70;;
28070;SDS011;15383;48.408;9.968;2024-03-29T12:55:06;2.80;;;1.80;;
28070;SDS011;15383;48.408;9.968;2024-03-29T12:57:33;1.98;;;1.35;;
28070;SDS011;15383;48.408;9.968;2024-03-29T12:59:59;5.28;;;1.50;;
28070;SDS011;15383;48.408;9.968;2024-03-29T13:02:25;2.60;;;1.67;;
28070;SDS011;15383;48.408;9.968;2024-03-29T13:04:51;1.48;;;1.38;;
28070;SDS011;15383;48.408;9.968;2024-03-29T13:07:17;2.53;;;1.50;;
28070;SDS011;15383;48.408;9.968;2024-03-29T13:09:42;5.10;;;1.73;;
28070;SDS011;15383;48.408;9.968;2024-03-29T13:12:08;1.67;;;1.42;;
28070;SDS011;15383;48.408;9.968;2024-03-29T13:14:33;1.48;;;1.23;;
28070;SDS011;15383;48.408;9.968;2024-03-29T13:16:59;2.03;;;1.27;;
28070;SDS011;15383;48.408;9.968;2024-03-29T13:19:25;1.88;;;1.50;;
28070;SDS011;15383;48.408;9.968;2024-03-29T13:21:50;5.32;;;0.70;;
28070;SDS011;15383;48.408;9.968;2024-03-29T13:24:16;2.42;;;1.50;;
28070;SDS011;15383;48.408;9.968;2024-03-29T13:26:41;4.30;;;1.30;;
28070;SDS011;15383;48.408;9.968;2024-03-29T13:29:07;2.45;;;1.20;;
28070;SDS011;15383;48.408;9.968;2024-03-29T13:31:32;2.10;;;1.27;;
28070;SDS011;15383;48.408;9.968;2024-03-29T13:33:58;2.40;;;1.40;;
28070;SDS011;15383;48.408;9.968;2024-03-29T13:36:38;2.58;;;1.65;;
28070;SDS011;15383;48.408;9.968;2024-03-29T13:39:04;1.75;;;1.45;;
28070;SDS011;15383;48.408;9.968;2024-03-29T13:41:30;1.58;;;1.42;;
28070;SDS011;15383;48.408;9.968;2024-03-29T13:43:55;2.05;;;1.27;;
28070;SDS011;15383;48.408;9.968;2024-03-29T13:46:21;3.30;;;1.60;;
28070;SDS011;15383;48.408;9.968;2024-03-29T13:48:47;1.98;;;1.48;;
28070;SDS011;15383;48.408;9.968;2024-03-29T13:51:13;1.90;;;1.30;;
28070;SDS011;15383;48.408;9.968;2024-03-29T13:53:40;1.45;;;1.30;;
28070;SDS011;15383;48.408;9.968;2024-03-29T13:56:06;3.05;;;1.08;;
28070;SDS011;15383;48.408;9.968;2024-03-29T13:58:32;2.67;;;1.42;;
28070;SDS011;15383;48.408;9.968;2024-03-29T14:00:58;1.88;;;1.40;;
28070;SDS011;15383;48.408;9.968;2024-03-29T14:03:25;1.80;;;1.15;;
28070;SDS011;15383;48.408;9.968;2024-03-29T14:05:51;1.48;;;1.27;;
28070;SDS011;15383;48.408;9.968;2024-03-29T14:08:16;2.30;;;1.30;;
28070;SDS011;15383;48.408;9.968;2024-03-29T14:10:42;1.40;;;1.30;;
28070;SDS011;15383;48.408;9.968;2024-03-29T14:13:09;1.95;;;1.38;;
28070;SDS011;15383;48.408;9.968;2024-03-29T14:15:34;1.42;;;1.30;;
28070;SDS011;15383;48.408;9.968;2024-03-29T14:18:00;1.00;;;0.98;;
28070;SDS011;15383;48.408;9.968;2024-03-29T14:20:25;1.63;;;1.30;;
28070;SDS011;15383;48.408;9.968;2024-03-29T14:22:51;2.67;;;1.50;;
28070;SDS011;15383;48.408;9.968;2024-03-29T14:25:19;1.48;;;1.00;;
28070;SDS011;15383;48.408;9.968;2024-03-29T14:27:45;1.90;;;1.30;;
28070;SDS011;15383;48.408;9.968;2024-03-29T14:30:19;2.72;;;1.48;;
28070;SDS011;15383;48.408;9.968;2024-03-29T14:32:49;2.35;;;1.50;;
28070;SDS011;15383;48.408;9.968;2024-03-29T14:35:16;1.40;;;1.30;;
28070;SDS011;15383;48.408;9.968;2024-03-29T14:37:42;1.50;;;1.13;;
28070;SDS011;15383;48.408;9.968;2024-03-29T14:40:08;2.58;;;1.48;;
28070;SDS011;15383;48.408;9.968;2024-03-29T14:42:37;1.77;;;1.50;;
28070;SDS011;15383;48.408;9.968;2024-03-29T14:45:03;1.70;;;1.60;;
28070;SDS011;15383;48.408;9.968;2024-03-29T14:47:31;1.75;;;1.42;;
28070;SDS011;15383;48.408;9.968;2024-03-29T14:49:57;3.05;;;1.40;;
28070;SDS011;15383;48.408;9.968;2024-03-29T14:52:29;1.10;;;1.00;;